Time;durP1;ratioP1;P1;durP2;ratioP2;P2;SDS_P1;SDS_P2;PMS_P1;PMS_P2;Temp;Humidity;BMP_temperature;BMP_pressure;BME280_temperature;BME280_humidity;BME280_pressure;Samples;Min_cycle;Max_cycle;Signal;HPM_P1;HPM_P2
2023/08/28 00:02:17;;;;;;;14.75;9.05;;;26.20;76.10;;;;;;4915163;29;20050;-82
2023/08/28 00:04:44;;;;;;;20.98;10.02;;;26.20;76.10;;;;;;4913776;29;20458;-82
2023/08/28 00:07:12;;;;;;;12.85;9.85;;;26.10;76.60;;;;;;4928091;29;20043;-82
2023/08/28 00:09:40;;;;;;;15.05;8.95;;;26.10;76.60;;;;;;4905424;29;20048;-82
2023/08/28 00:12:07;;;;;;;15.63;9.57;;;26.10;76.90;;;;;;4896508;29;20643;-81
2023/08/28 00:14:34;;;;;;;14.10;10.32;;;26.10;76.90;;;;;;4924283;29;20044;-81
2023/08/28 00:17:04;;;;;;;13.55;8.50;;;25.90;76.90;;;;;;4913325;29;20052;-82
2023/08/28 00:19:33;;;;;;;14.35;8.70;;;25.90;77.10;;;;;;4915182;29;20412;-81
2023/08/28 00:22:01;;;;;;;13.80;9.70;;;25.90;77.40;;;;;;4912226;29;20043;-80
2023/08/28 00:24:28;;;;;;;15.75;9.52;;;25.80;77.60;;;;;;4911090;29;20047;-80
2023/08/28 00:26:56;;;;;;;20.35;9.70;;;25.40;78.60;;;;;;4917464;29;20488;-80
2023/08/28 00:29:25;;;;;;;19.48;10.32;;;25.20;79.40;;;;;;4929725;29;20420;-80
2023/08/28 00:31:52;;;;;;;17.65;10.10;;;25.30;79.60;;;;;;4931292;29;20103;-80
2023/08/28 00:34:20;;;;;;;14.13;9.90;;;25.70;79.50;;;;;;4893755;29;20048;-80
2023/08/28 00:36:47;;;;;;;14.00;9.43;;;25.90;79.40;;;;;;4918709;29;20036;-81
2023/08/28 00:39:16;;;;;;;14.95;9.15;;;26.10;79.40;;;;;;4934001;29;20053;-81
2023/08/28 00:41:45;;;;;;;17.17;8.95;;;26.10;79.80;;;;;;4912296;29;20052;-80
2023/08/28 00:44:14;;;;;;;15.00;9.77;;;26.00;79.80;;;;;;4926352;29;20043;-80
2023/08/28 00:46:41;;;;;;;14.27;9.82;;;26.00;79.40;;;;;;4906600;29;20036;-81
2023/08/28 00:49:09;;;;;;;15.18;10.43;;;26.10;79.50;;;;;;4928942;29;20035;-81
2023/08/28 00:51:37;;;;;;;12.43;9.82;;;26.10;79.40;;;;;;4926184;29;20050;-80
2023/08/28 00:54:04;;;;;;;13.18;9.73;;;26.00;79.90;;;;;;4931790;29;20043;-81
2023/08/28 00:56:32;;;;;;;17.23;10.35;;;26.00;79.90;;;;;;4926664;29;20417;-80
2023/08/28 00:59:00;;;;;;;18.55;9.82;;;25.90;80.00;;;;;;4912390;29;20045;-80
2023/08/28 01:01:28;;;;;;;16.05;9.52;;;26.00;80.40;;;;;;4924923;29;20040;-80
2023/08/28 01:03:56;;;;;;;15.75;9.23;;;26.00;80.30;;;;;;4932222;29;20130;-79
2023/08/28 01:06:59;;;;;;;12.82;9.05;;;26.10;80.20;;;;;;4931507;29;20046;-80
2023/08/28 01:10:11;;;;;;;18.15;9.02;;;26.10;80.10;;;;;;4890700;29;20537;-79
2023/08/28 01:12:50;;;;;;;14.68;8.55;;;26.00;80.80;;;;;;4897632;29;20403;-79
2023/08/28 01:15:22;;;;;;;13.85;8.23;;;25.90;80.90;;;;;;4923902;29;20484;-80
2023/08/28 01:17:54;;;;;;;15.85;9.60;;;25.90;80.70;;;;;;4911176;29;20050;-80
2023/08/28 01:20:24;;;;;;;14.15;9.80;;;25.90;81.10;;;;;;4929942;29;20035;-80
2023/08/28 01:23:30;;;;;;;12.90;8.83;;;25.90;81.00;;;;;;4910552;29;20055;-79
2023/08/28 01:25:59;;;;;;;17.17;9.10;;;25.50;81.20;;;;;;4871418;29;20410;-80
2023/08/28 01:28:26;;;;;;;16.90;9.23;;;25.00;83.60;;;;;;4922139;29;20556;-79
2023/08/28 01:30:53;;;;;;;15.98;8.80;;;25.00;83.80;;;;;;4908603;29;20054;-79
2023/08/28 01:33:21;;;;;;;16.38;9.35;;;25.40;83.30;;;;;;4918893;29;20118;-79
2023/08/28 01:36:09;;;;;;;13.32;9.20;;;25.60;83.00;;;;;;4912329;29;20060;-79
2023/08/28 01:38:44;;;;;;;16.10;9.27;;;25.60;82.60;;;;;;4916391;29;20480;-79
2023/08/28 01:41:12;;;;;;;14.13;8.63;;;25.60;82.30;;;;;;4914078;29;20067;-80
2023/08/28 01:43:46;;;;;;;13.27;9.10;;;25.60;82.30;;;;;;4913650;29;20043;-79
2023/08/28 01:46:15;;;;;;;17.67;9.30;;;25.50;82.70;;;;;;4913046;29;20051;-80
2023/08/28 01:48:45;;;;;;;12.68;8.80;;;25.50;82.70;;;;;;4907754;29;20047;-79
2023/08/28 01:51:12;;;;;;;14.80;9.20;;;25.50;83.00;;;;;;4930651;29;20131;-80
2023/08/28 01:53:39;;;;;;;15.82;9.10;;;25.50;83.10;;;;;;4913828;29;20043;-81
2023/08/28 01:56:10;;;;;;;14.38;9.10;;;25.50;83.40;;;;;;4908595;29;20052;-80
2023/08/28 01:58:46;;;;;;;14.63;9.55;;;25.40;83.60;;;;;;4898761;29;20044;-81
2023/08/28 02:01:14;;;;;;;13.25;8.75;;;25.40;84.10;;;;;;4908784;29;20056;-81
2023/08/28 02:03:41;;;;;;;16.17;8.95;;;25.40;84.10;;;;;;4926980;29;20436;-81
2023/08/28 02:06:09;;;;;;;11.90;9.38;;;25.40;84.10;;;;;;4910853;29;20094;-80
2023/08/28 02:08:37;;;;;;;16.90;8.73;;;25.50;84.40;;;;;;4932892;29;20047;-80
2023/08/28 02:11:05;;;;;;;15.02;8.93;;;25.50;84.40;;;;;;4910589;29;20123;-80
2023/08/28 02:13:32;;;;;;;14.20;9.05;;;25.40;84.90;;;;;;4899812;29;20417;-80
2023/08/28 02:16:00;;;;;;;15.57;9.85;;;25.40;84.70;;;;;;4904134;29;20054;-81
2023/08/28 02:18:28;;;;;;;13.18;9.13;;;25.40;84.60;;;;;;4930080;29;20052;-80
2023/08/28 02:20:55;;;;;;;15.23;9.10;;;25.20;84.70;;;;;;4914177;29;20403;-80
2023/08/28 02:23:25;;;;;;;17.05;10.43;;;25.30;85.30;;;;;;4914025;29;20223;-80
2023/08/28 02:25:53;;;;;;;14.90;9.27;;;25.30;85.00;;;;;;4921497;29;20043;-79
2023/08/28 02:28:20;;;;;;;12.45;8.77;;;25.30;85.30;;;;;;4931201;29;20404;-80
2023/08/28 02:30:48;;;;;;;13.10;8.45;;;25.20;86.30;;;;;;4909016;29;20401;-79
2023/08/28 02:33:15;;;;;;;14.32;8.50;;;25.10;86.40;;;;;;4911495;29;20579;-79
2023/08/28 02:35:43;;;;;;;13.73;8.75;;;25.10;86.60;;;;;;4928017;29;20119;-79
2023/08/28 02:38:11;;;;;;;14.57;10.23;;;25.10;86.50;;;;;;4904158;29;20044;-80
2023/08/28 02:40:39;;;;;;;13.00;8.73;;;25.10;86.40;;;;;;4929948;29;20083;-80
2023/08/28 02:43:07;;;;;;;14.73;8.82;;;25.10;86.80;;;;;;4931428;29;20035;-80
2023/08/28 02:45:40;;;;;;;15.82;10.68;;;25.00;86.80;;;;;;4925637;29;20043;-79
2023/08/28 02:48:09;;;;;;;18.73;10.40;;;25.00;87.10;;;;;;4913373;29;20519;-81
2023/08/28 02:50:37;;;;;;;20.20;10.73;;;25.10;87.10;;;;;;4927687;29;20590;-80
2023/08/28 02:53:04;;;;;;;15.27;9.43;;;25.00;87.40;;;;;;4924733;29;20440;-79
2023/08/28 02:55:39;;;;;;;15.43;9.02;;;25.00;87.80;;;;;;4928965;29;20508;-80
2023/08/28 02:58:08;;;;;;;20.52;9.15;;;24.90;87.10;;;;;;4893176;29;20047;-80
2023/08/28 03:00:37;;;;;;;13.82;9.63;;;24.90;87.10;;;;;;4910661;29;20564;-81
2023/08/28 03:03:05;;;;;;;15.93;10.43;;;24.90;86.90;;;;;;4913203;29;20110;-82
2023/08/28 03:05:33;;;;;;;13.30;9.77;;;24.80;87.70;;;;;;4923738;29;20049;-78
2023/08/28 03:08:00;;;;;;;15.93;10.13;;;24.70;88.40;;;;;;4913589;29;20111;-79
2023/08/28 03:10:30;;;;;;;31.10;19.88;;;24.40;88.60;;;;;;4913117;29;20063;-78
2023/08/28 03:12:57;;;;;;;31.30;17.33;;;23.50;90.80;;;;;;4913240;29;20044;-80
2023/08/28 03:15:25;;;;;;;23.65;15.20;;;23.20;92.10;;;;;;4901551;29;20079;-80
2023/08/28 03:17:53;;;;;;;19.15;12.68;;;23.30;91.90;;;;;;4931699;29;20107;-80
2023/08/28 03:20:20;;;;;;;21.05;14.02;;;23.80;91.10;;;;;;4902602;29;20044;-81
2023/08/28 03:22:47;;;;;;;21.70;12.98;;;24.10;90.60;;;;;;4917217;29;20152;-81
2023/08/28 03:25:14;;;;;;;19.38;12.82;;;24.20;90.30;;;;;;4911298;29;20153;-81
2023/08/28 03:27:42;;;;;;;16.80;11.48;;;24.10;90.50;;;;;;4926571;29;20106;-80
2023/08/28 03:30:09;;;;;;;17.90;12.63;;;24.20;90.40;;;;;;4924022;29;20048;-81
2023/08/28 03:32:37;;;;;;;16.58;11.10;;;24.20;90.40;;;;;;4931848;29;20407;-80
2023/08/28 03:35:04;;;;;;;14.93;9.82;;;24.30;90.50;;;;;;4911529;29;20055;-79
2023/08/28 03:37:32;;;;;;;13.10;9.57;;;24.40;90.50;;;;;;4909674;29;20527;-80
2023/08/28 03:40:00;;;;;;;13.80;9.18;;;24.40;90.40;;;;;;4923599;29;20432;-80
2023/08/28 03:42:27;;;;;;;11.35;8.45;;;24.30;90.20;;;;;;4903200;29;20054;-78
2023/08/28 03:44:54;;;;;;;16.58;9.60;;;24.30;90.30;;;;;;4929938;29;20476;-80
2023/08/28 03:47:22;;;;;;;16.33;10.23;;;24.30;90.40;;;;;;4908990;29;20045;-78
2023/08/28 03:49:49;;;;;;;16.40;10.85;;;24.40;90.50;;;;;;4908264;29;20055;-81
2023/08/28 03:52:16;;;;;;;15.40;9.15;;;24.50;90.50;;;;;;4910362;29;20038;-80
2023/08/28 03:54:45;;;;;;;19.17;9.10;;;24.10;90.60;;;;;;4926092;29;20059;-79
2023/08/28 03:57:12;;;;;;;15.15;10.30;;;24.10;90.90;;;;;;4929659;29;20488;-81
2023/08/28 03:59:39;;;;;;;14.13;9.45;;;24.00;91.30;;;;;;4929938;29;20453;-80
2023/08/28 04:02:07;;;;;;;13.52;9.05;;;23.80;91.40;;;;;;4923731;29;20053;-80
2023/08/28 04:04:34;;;;;;;14.90;8.98;;;23.70;91.90;;;;;;4927673;29;20051;-80
2023/08/28 04:07:02;;;;;;;16.13;9.20;;;23.60;92.00;;;;;;4922131;29;20051;-80
2023/08/28 04:09:29;;;;;;;14.52;9.70;;;23.60;92.10;;;;;;4903693;29;20135;-79
2023/08/28 04:11:57;;;;;;;14.45;9.25;;;23.20;93.00;;;;;;4908456;29;20099;-80
2023/08/28 04:14:24;;;;;;;13.68;8.93;;;23.10;93.50;;;;;;4928401;29;20499;-79
2023/08/28 04:16:53;;;;;;;12.40;8.93;;;22.60;94.60;;;;;;4926097;29;20118;-80
2023/08/28 04:19:20;;;;;;;13.43;9.07;;;22.20;95.40;;;;;;4920526;29;20382;-80
2023/08/28 04:21:48;;;;;;;13.82;9.90;;;22.30;95.70;;;;;;4911196;29;20048;-79
2023/08/28 04:24:15;;;;;;;15.60;8.75;;;22.30;96.30;;;;;;4903932;29;20496;-79
2023/08/28 04:26:42;;;;;;;14.43;9.63;;;22.30;96.80;;;;;;4929338;29;20357;-79
2023/08/28 04:29:09;;;;;;;15.02;8.80;;;22.40;97.00;;;;;;4912540;29;20387;-80
2023/08/28 04:31:37;;;;;;;15.68;9.27;;;22.60;97.20;;;;;;4913867;29;20048;-80
2023/08/28 04:34:04;;;;;;;14.00;9.15;;;23.10;96.50;;;;;;4927631;29;20044;-81
2023/08/28 04:36:31;;;;;;;15.15;9.32;;;23.40;95.80;;;;;;4930191;29;20043;-79
2023/08/28 04:38:58;;;;;;;17.20;8.82;;;23.60;95.60;;;;;;4909760;29;20044;-78
2023/08/28 04:41:26;;;;;;;13.20;9.32;;;23.60;95.30;;;;;;4931493;29;20091;-79
2023/08/28 04:43:53;;;;;;;14.95;9.43;;;23.80;94.90;;;;;;4920444;29;20059;-80
2023/08/28 04:46:22;;;;;;;14.30;9.40;;;23.90;94.80;;;;;;4912172;29;20130;-80
2023/08/28 04:48:49;;;;;;;15.40;9.20;;;24.00;94.80;;;;;;4910361;29;20051;-79
2023/08/28 04:51:16;;;;;;;17.20;9.80;;;24.00;94.70;;;;;;4921885;29;20118;-79
2023/08/28 04:53:43;;;;;;;13.77;8.55;;;24.20;94.60;;;;;;4913170;29;20507;-79
2023/08/28 04:56:11;;;;;;;13.85;8.93;;;24.30;94.70;;;;;;4928582;29;20048;-79
2023/08/28 04:58:38;;;;;;;12.15;9.13;;;24.30;94.80;;;;;;4921332;29;20463;-78
2023/08/28 05:01:05;;;;;;;14.20;9.48;;;24.30;95.10;;;;;;4907151;29;20572;-79
2023/08/28 05:03:32;;;;;;;12.60;8.45;;;24.40;94.80;;;;;;4924568;29;20075;-80
2023/08/28 05:06:00;;;;;;;15.73;9.52;;;24.30;95.20;;;;;;4909216;29;20060;-78
2023/08/28 05:08:27;;;;;;;14.02;9.90;;;24.50;95.00;;;;;;4929004;29;20050;-79
2023/08/28 05:10:55;;;;;;;14.15;10.07;;;24.60;94.90;;;;;;4925264;29;20486;-78
2023/08/28 05:13:22;;;;;;;16.13;9.80;;;24.40;95.00;;;;;;4929976;29;20042;-78
2023/08/28 05:15:49;;;;;;;16.00;10.10;;;24.50;94.90;;;;;;4926893;29;20043;-80
2023/08/28 05:18:16;;;;;;;18.73;10.85;;;24.60;94.90;;;;;;4928133;29;20059;-80
2023/08/28 05:20:43;;;;;;;18.98;12.20;;;24.40;94.80;;;;;;4913324;29;20404;-79
2023/08/28 05:23:11;;;;;;;19.90;12.68;;;24.20;95.10;;;;;;4932646;29;20127;-79
2023/08/28 05:25:38;;;;;;;16.10;10.80;;;24.20;95.10;;;;;;4927251;29;20037;-79
2023/08/28 05:28:05;;;;;;;15.25;10.52;;;24.20;94.90;;;;;;4915444;29;20051;-78
2023/08/28 05:30:32;;;;;;;18.55;10.95;;;23.90;94.50;;;;;;4927620;29;20045;-79
2023/08/28 05:33:00;;;;;;;19.17;11.05;;;23.90;94.70;;;;;;4935056;29;20212;-79
2023/08/28 05:35:27;;;;;;;15.20;10.02;;;24.00;94.90;;;;;;4910731;29;20048;-79
2023/08/28 05:37:54;;;;;;;16.75;10.35;;;24.10;95.00;;;;;;4916334;29;20257;-81
2023/08/28 05:40:21;;;;;;;16.23;10.88;;;24.20;95.00;;;;;;4933605;29;20035;-79
2023/08/28 05:42:49;;;;;;;15.60;10.55;;;24.10;95.10;;;;;;4920523;29;20051;-80
2023/08/28 05:45:16;;;;;;;15.18;10.77;;;24.20;95.30;;;;;;4926024;29;20437;-79
2023/08/28 05:47:43;;;;;;;14.25;10.05;;;24.30;95.20;;;;;;4918090;29;20420;-78
2023/08/28 05:50:11;;;;;;;19.15;10.30;;;24.30;95.10;;;;;;4920206;29;20457;-79
2023/08/28 05:52:38;;;;;;;16.75;10.43;;;24.20;95.30;;;;;;4914450;29;20055;-79
2023/08/28 05:55:06;;;;;;;19.33;10.43;;;24.20;95.30;;;;;;4905949;29;20099;-79
2023/08/28 05:57:34;;;;;;;15.10;10.57;;;24.30;95.40;;;;;;4897867;29;20073;-78
2023/08/28 06:00:03;;;;;;;19.65;10.23;;;24.50;95.30;;;;;;4925988;29;20492;-80
2023/08/28 06:02:30;;;;;;;14.13;10.48;;;24.40;95.30;;;;;;4933821;29;20118;-79
2023/08/28 06:04:58;;;;;;;17.20;10.45;;;24.50;95.60;;;;;;4926451;29;20043;-79
2023/08/28 06:07:25;;;;;;;16.67;10.13;;;24.60;95.50;;;;;;4928800;29;20055;-80
2023/08/28 06:09:52;;;;;;;20.27;11.00;;;24.60;95.90;;;;;;4914849;29;20063;-80
2023/08/28 06:12:20;;;;;;;14.82;9.77;;;24.80;95.90;;;;;;4901250;29;21044;-81
2023/08/28 06:14:50;;;;;;;17.13;10.10;;;24.90;95.50;;;;;;4924864;29;20160;-79
2023/08/28 06:17:17;;;;;;;17.13;10.05;;;25.00;95.50;;;;;;4914056;29;20048;-80
2023/08/28 06:19:44;;;;;;;16.75;9.80;;;25.00;95.50;;;;;;4913682;29;20131;-80
2023/08/28 06:22:11;;;;;;;13.93;9.75;;;25.20;95.20;;;;;;4912121;29;20453;-80
2023/08/28 06:24:39;;;;;;;15.25;9.88;;;25.20;95.10;;;;;;4898759;29;20075;-82
2023/08/28 06:27:08;;;;;;;20.80;11.20;;;25.20;95.10;;;;;;4911885;29;20040;-79
2023/08/28 06:29:36;;;;;;;13.60;9.75;;;25.30;94.90;;;;;;4900310;29;20054;-81
2023/08/28 06:32:04;;;;;;;17.45;9.27;;;25.30;95.20;;;;;;4898353;29;20056;-80
2023/08/28 06:34:32;;;;;;;15.18;9.55;;;25.30;95.00;;;;;;4912566;29;20381;-80
2023/08/28 06:36:59;;;;;;;16.08;9.77;;;25.40;94.80;;;;;;4927721;29;20041;-80
2023/08/28 06:39:26;;;;;;;13.95;9.88;;;25.40;94.60;;;;;;4928659;29;20031;-80
2023/08/28 06:41:53;;;;;;;16.02;8.63;;;25.40;94.60;;;;;;4928540;29;20085;-81
2023/08/28 06:44:20;;;;;;;15.85;9.82;;;25.50;94.60;;;;;;4921804;29;20395;-81
2023/08/28 06:46:48;;;;;;;12.70;9.23;;;25.60;94.50;;;;;;4929845;29;20043;-82
2023/08/28 06:49:15;;;;;;;15.10;9.85;;;25.50;94.60;;;;;;4913582;29;20079;-81
2023/08/28 06:51:42;;;;;;;17.83;9.18;;;25.60;94.60;;;;;;4924686;29;20214;-81
2023/08/28 06:54:09;;;;;;;17.95;9.50;;;25.70;94.30;;;;;;4929768;29;20400;-81
2023/08/28 06:56:37;;;;;;;14.55;10.00;;;25.70;94.20;;;;;;4908910;29;20512;-79
2023/08/28 06:59:05;;;;;;;13.82;9.52;;;25.80;94.30;;;;;;4909608;29;20055;-81
2023/08/28 07:01:32;;;;;;;12.10;8.55;;;25.70;94.30;;;;;;4924746;29;20044;-79
2023/08/28 07:03:59;;;;;;;13.57;9.45;;;25.90;94.30;;;;;;4915204;29;20054;-80
2023/08/28 07:06:26;;;;;;;11.57;9.35;;;26.10;94.30;;;;;;4911460;29;20130;-79
2023/08/28 07:08:55;;;;;;;14.50;9.23;;;26.10;93.80;;;;;;4928475;29;20465;-81
2023/08/28 07:11:22;;;;;;;12.98;8.73;;;26.10;93.70;;;;;;4904899;29;20051;-78
2023/08/28 07:13:50;;;;;;;13.20;9.05;;;26.10;93.60;;;;;;4913271;29;20067;-79
2023/08/28 07:16:17;;;;;;;14.85;9.32;;;26.10;93.60;;;;;;4927734;29;20506;-80
2023/08/28 07:18:44;;;;;;;11.88;8.77;;;26.20;93.80;;;;;;4928111;29;20040;-80
2023/08/28 07:21:11;;;;;;;14.80;9.10;;;26.30;93.70;;;;;;4912289;29;20035;-78
2023/08/28 07:23:38;;;;;;;13.57;8.85;;;26.40;93.60;;;;;;4927702;29;20143;-79
2023/08/28 07:26:06;;;;;;;15.45;9.00;;;26.50;93.50;;;;;;4924092;29;20131;-80
2023/08/28 07:28:33;;;;;;;14.13;8.90;;;26.70;93.50;;;;;;4926226;29;20051;-79
2023/08/28 07:31:02;;;;;;;14.43;8.90;;;26.70;93.40;;;;;;4910975;29;20034;-80
2023/08/28 07:33:29;;;;;;;15.18;8.15;;;26.70;93.30;;;;;;4929924;29;20048;-80
2023/08/28 07:35:56;;;;;;;13.95;9.05;;;26.60;93.40;;;;;;4914347;29;20147;-79
2023/08/28 07:38:24;;;;;;;16.42;9.15;;;26.80;93.10;;;;;;4923385;29;20046;-80
2023/08/28 07:40:51;;;;;;;18.33;9.88;;;26.80;93.10;;;;;;4926570;29;20480;-80
2023/08/28 07:43:18;;;;;;;15.63;8.52;;;26.90;93.00;;;;;;4927414;29;20046;-80
2023/08/28 07:45:46;;;;;;;16.23;9.85;;;27.00;92.60;;;;;;4930697;29;20039;-83
2023/08/28 07:48:13;;;;;;;12.43;8.23;;;27.10;92.50;;;;;;4929873;29;20048;-80
2023/08/28 07:50:40;;;;;;;10.98;8.07;;;27.00;92.60;;;;;;4925976;29;20066;-81
2023/08/28 07:53:07;;;;;;;10.63;7.93;;;27.10;92.70;;;;;;4909079;29;20138;-81
2023/08/28 07:55:35;;;;;;;12.23;7.82;;;27.20;92.40;;;;;;4931550;29;20099;-80
2023/08/28 07:58:04;;;;;;;13.05;8.15;;;27.40;92.30;;;;;;4925458;29;20078;-81
2023/08/28 08:00:34;;;;;;;12.13;8.27;;;27.40;92.20;;;;;;4930926;29;20119;-81
2023/08/28 08:03:03;;;;;;;12.57;8.60;;;27.50;92.20;;;;;;4922096;29;20044;-81
2023/08/28 08:05:31;;;;;;;10.68;8.02;;;27.60;92.20;;;;;;4929311;29;20462;-80
2023/08/28 08:07:59;;;;;;;12.00;9.00;;;27.50;92.10;;;;;;4910093;29;20130;-80
2023/08/28 08:10:26;;;;;;;10.57;8.00;;;27.60;92.10;;;;;;4930073;29;20047;-80
2023/08/28 08:12:54;;;;;;;9.95;7.95;;;27.60;91.90;;;;;;4924636;29;20078;-80
2023/08/28 08:15:21;;;;;;;15.02;7.97;;;27.60;91.80;;;;;;4911628;29;20040;-80
2023/08/28 08:17:48;;;;;;;14.90;8.15;;;27.50;91.80;;;;;;4931545;29;20050;-82
2023/08/28 08:20:16;;;;;;;11.88;7.40;;;27.50;91.70;;;;;;4928194;29;20043;-79
2023/08/28 08:22:43;;;;;;;12.30;7.93;;;27.50;91.70;;;;;;4932279;29;20407;-80
2023/08/28 08:25:10;;;;;;;11.75;7.68;;;27.70;91.90;;;;;;4927795;29;20078;-80
2023/08/28 08:27:39;;;;;;;12.43;7.75;;;27.80;91.50;;;;;;4918537;29;20040;-79
2023/08/28 08:30:08;;;;;;;12.10;7.50;;;27.80;91.50;;;;;;4923676;29;20050;-79
2023/08/28 08:32:35;;;;;;;10.82;7.75;;;28.10;91.30;;;;;;4926797;29;20134;-79
2023/08/28 08:35:05;;;;;;;13.98;7.80;;;28.20;91.20;;;;;;4914704;29;20102;-81
2023/08/28 08:37:33;;;;;;;10.77;7.88;;;28.40;90.80;;;;;;4908878;29;20054;-79
2023/08/28 08:40:00;;;;;;;11.65;7.63;;;28.30;90.90;;;;;;4929569;29;20075;-79
2023/08/28 08:42:28;;;;;;;11.98;7.35;;;28.40;91.00;;;;;;4913004;29;20445;-80
2023/08/28 08:44:56;;;;;;;10.65;7.18;;;28.60;90.80;;;;;;4924996;29;20152;-80
2023/08/28 08:47:24;;;;;;;11.73;9.65;;;28.70;90.50;;;;;;4918767;29;20440;-80
2023/08/28 08:49:56;;;;;;;14.70;7.90;;;28.80;90.50;;;;;;4907383;29;20139;-79
2023/08/28 08:52:24;;;;;;;12.10;7.13;;;28.90;90.40;;;;;;4913367;29;20633;-80
2023/08/28 08:54:59;;;;;;;12.20;7.50;;;28.80;89.60;;;;;;4922942;29;20071;-80
2023/08/28 08:57:37;;;;;;;11.40;7.25;;;28.90;89.10;;;;;;4898416;29;20386;-82
2023/08/28 09:00:11;;;;;;;9.75;7.30;;;29.00;88.80;;;;;;4914616;29;20118;-80
2023/08/28 09:02:41;;;;;;;10.75;7.40;;;29.10;88.30;;;;;;4931884;29;20047;-81
2023/08/28 09:05:09;;;;;;;11.23;7.35;;;29.30;86.70;;;;;;4915213;29;20047;-81
2023/08/28 09:07:40;;;;;;;9.95;7.45;;;29.30;86.30;;;;;;4932417;29;20072;-81
2023/08/28 09:10:07;;;;;;;10.05;6.88;;;29.50;86.50;;;;;;4896391;29;20055;-81
2023/08/28 09:12:35;;;;;;;10.82;7.28;;;29.50;85.90;;;;;;4928724;29;20044;-80
2023/08/28 09:15:03;;;;;;;10.85;7.15;;;29.80;85.70;;;;;;4932800;29;20040;-81
2023/08/28 09:17:30;;;;;;;10.05;7.10;;;29.80;85.50;;;;;;4915952;29;20429;-79
2023/08/28 09:20:14;;;;;;;10.38;6.82;;;30.10;85.60;;;;;;4901794;29;20036;-80
2023/08/28 09:22:47;;;;;;;10.68;6.80;;;30.10;83.80;;;;;;4935008;29;20051;-80
2023/08/28 09:25:22;;;;;;;10.55;7.53;;;30.20;83.60;;;;;;4925994;29;20059;-81
2023/08/28 09:27:55;;;;;;;9.23;6.78;;;30.40;83.00;;;;;;4932517;29;20047;-81
2023/08/28 09:30:36;;;;;;;12.65;6.93;;;30.50;81.90;;;;;;4932778;29;20532;-80
2023/08/28 09:33:06;;;;;;;8.93;6.55;;;30.50;81.40;;;;;;4913642;29;20048;-81
2023/08/28 09:35:42;;;;;;;13.52;6.75;;;30.80;81.60;;;;;;4915672;29;20036;-82
2023/08/28 09:38:11;;;;;;;10.60;7.07;;;30.80;79.40;;;;;;4933211;29;20043;-82
2023/08/28 09:40:40;;;;;;;9.77;7.00;;;30.90;79.40;;;;;;4932371;29;20506;-80
2023/08/28 09:43:13;;;;;;;10.20;7.68;;;30.90;78.10;;;;;;4915788;29;20043;-81
2023/08/28 09:46:32;;;;;;;10.18;7.18;;;31.00;78.60;;;;;;4922960;29;20049;-80
2023/08/28 09:49:00;;;;;;;10.43;6.90;;;31.20;78.40;;;;;;4919105;29;20131;-79
2023/08/28 09:51:41;;;;;;;9.52;7.10;;;31.10;76.80;;;;;;4915082;29;20370;-80
2023/08/28 09:54:11;;;;;;;9.32;6.50;;;31.10;77.40;;;;;;4927683;29;20032;-80
2023/08/28 09:56:39;;;;;;;13.27;6.82;;;31.20;77.80;;;;;;4925405;29;20112;-81
2023/08/28 09:59:09;;;;;;;12.90;7.70;;;31.60;77.90;;;;;;4929428;29;20042;-79
2023/08/28 10:01:37;;;;;;;11.02;7.40;;;31.80;78.00;;;;;;4927532;29;20074;-81
2023/08/28 10:04:06;;;;;;;10.10;7.15;;;32.00;77.10;;;;;;4917253;29;20043;-83
2023/08/28 10:06:38;;;;;;;9.82;7.22;;;32.10;75.80;;;;;;4928925;29;20042;-81
2023/08/28 10:09:10;;;;;;;11.02;6.88;;;32.10;75.90;;;;;;4915864;29;20054;-81
2023/08/28 10:11:39;;;;;;;8.70;6.40;;;31.90;75.40;;;;;;4927863;29;20403;-81
2023/08/28 10:14:10;;;;;;;9.20;7.03;;;31.90;75.50;;;;;;4911582;29;20121;-80
2023/08/28 10:16:53;;;;;;;9.30;7.25;;;32.00;74.20;;;;;;4931481;29;20063;-81
2023/08/28 10:19:36;;;;;;;8.85;6.30;;;32.10;74.40;;;;;;4925535;29;20039;-81
2023/08/28 10:22:09;;;;;;;10.40;6.60;;;32.30;73.80;;;;;;4909859;29;20072;-82
2023/08/28 10:24:39;;;;;;;11.32;7.00;;;32.40;74.20;;;;;;4914576;29;20047;-79
2023/08/28 10:27:08;;;;;;;11.05;7.18;;;32.60;73.20;;;;;;4913280;29;20050;-82
2023/08/28 10:29:37;;;;;;;8.93;6.82;;;32.60;72.90;;;;;;4933825;29;20496;-82
2023/08/28 10:32:09;;;;;;;11.73;7.05;;;32.60;72.20;;;;;;4927207;29;20044;-80
2023/08/28 10:34:40;;;;;;;12.30;6.85;;;32.80;71.20;;;;;;4936792;29;20043;-81
2023/08/28 10:37:12;;;;;;;13.00;6.63;;;32.80;69.90;;;;;;4916652;29;20411;-82
2023/08/28 10:39:58;;;;;;;11.43;7.93;;;32.90;70.10;;;;;;4911623;29;20510;-81
2023/08/28 10:42:30;;;;;;;14.43;9.35;;;33.20;70.60;;;;;;4908562;29;20126;-81
2023/08/28 10:45:00;;;;;;;10.60;7.07;;;33.30;69.30;;;;;;4927945;29;20040;-82
2023/08/28 10:47:34;;;;;;;11.65;6.47;;;33.00;68.40;;;;;;4913065;29;20044;-81
2023/08/28 10:50:03;;;;;;;8.27;6.10;;;32.90;69.30;;;;;;4913948;29;20415;-82
2023/08/28 10:52:31;;;;;;;10.38;7.20;;;33.00;69.60;;;;;;4933183;29;20424;-81
2023/08/28 10:55:04;;;;;;;10.30;6.63;;;33.10;69.90;;;;;;4891474;29;20049;-83
2023/08/28 10:57:32;;;;;;;9.52;6.15;;;33.30;69.40;;;;;;4897903;29;20046;-81
2023/08/28 11:00:15;;;;;;;10.10;6.80;;;33.50;69.10;;;;;;4905969;29;20032;-81
2023/08/28 11:03:07;;;;;;;9.70;6.65;;;33.80;69.60;;;;;;4925334;29;20059;-81
2023/08/28 11:05:38;;;;;;;10.55;7.13;;;33.70;69.40;;;;;;4928421;29;20083;-80
2023/08/28 11:08:08;;;;;;;9.13;6.80;;;33.60;68.90;;;;;;4912224;29;20062;-81
2023/08/28 11:10:39;;;;;;;9.85;6.82;;;33.70;68.70;;;;;;4933547;29;20416;-81
2023/08/28 11:13:08;;;;;;;10.32;6.40;;;33.70;69.10;;;;;;4928441;29;20043;-81
2023/08/28 11:15:39;;;;;;;10.07;7.03;;;34.00;68.80;;;;;;4912126;29;20194;-80
2023/08/28 11:18:28;;;;;;;9.40;6.70;;;34.00;69.10;;;;;;4913418;29;20050;-81
2023/08/28 11:21:08;;;;;;;8.50;6.43;;;34.10;68.50;;;;;;4904785;29;20202;-82
2023/08/28 11:23:39;;;;;;;10.27;6.50;;;34.30;68.70;;;;;;4925365;29;20084;-81
2023/08/28 11:26:15;;;;;;;14.30;8.60;;;34.40;68.20;;;;;;4929890;29;20110;-82
2023/08/28 11:28:47;;;;;;;11.77;6.88;;;34.40;67.20;;;;;;4910379;29;20071;-82
2023/08/28 11:31:32;;;;;;;;;;;34.20;67.40;;;;;;4914624;29;20039;-82
2023/08/28 11:34:03;;;;;;;10.55;7.43;;;34.30;67.70;;;;;;4907351;29;19922;-82
2023/08/28 11:36:39;;;;;;;12.13;7.88;;;34.40;67.10;;;;;;4916347;29;20068;-82
2023/08/28 11:39:28;;;;;;;10.00;7.68;;;34.60;66.90;;;;;;4909160;29;20058;-82
2023/08/28 11:41:55;;;;;;;10.73;7.57;;;34.70;67.20;;;;;;4912440;29;20059;-83
2023/08/28 11:44:25;;;;;;;11.85;7.60;;;34.80;66.80;;;;;;4927363;29;20057;-81
2023/08/28 11:46:57;;;;;;;11.05;7.35;;;35.00;66.60;;;;;;4926170;29;20049;-83
2023/08/28 11:49:26;;;;;;;8.98;7.05;;;35.10;66.40;;;;;;4908672;29;20079;-82
2023/08/28 11:51:54;;;;;;;12.05;7.65;;;35.20;65.00;;;;;;4924012;29;20043;-82
2023/08/28 11:54:21;;;;;;;12.02;7.82;;;35.00;63.20;;;;;;4924827;29;20056;-82
2023/08/28 11:56:49;;;;;;;10.30;7.43;;;35.20;63.60;;;;;;4911731;29;20052;-82
2023/08/28 11:59:17;;;;;;;11.23;7.65;;;35.20;64.60;;;;;;4891607;29;20104;-81
2023/08/28 12:01:47;;;;;;;11.18;7.70;;;35.40;62.80;;;;;;4911110;29;20051;-81
2023/08/28 12:04:22;;;;;;;13.80;7.85;;;35.70;62.80;;;;;;4922975;29;20059;-83
2023/08/28 12:06:50;;;;;;;10.52;7.50;;;35.80;63.40;;;;;;4908073;29;20075;-83
2023/08/28 12:09:18;;;;;;;10.10;7.10;;;35.70;60.00;;;;;;4910253;29;20580;-82
2023/08/28 12:11:46;;;;;;;12.82;7.07;;;35.60;60.70;;;;;;4910764;29;20055;-81
2023/08/28 12:14:15;;;;;;;8.93;7.05;;;35.90;60.00;;;;;;4910019;29;20046;-82
2023/08/28 12:16:42;;;;;;;9.60;6.95;;;36.00;59.20;;;;;;4931070;29;20044;-82
2023/08/28 12:19:20;;;;;;;8.95;6.72;;;36.10;59.00;;;;;;4928277;29;20055;-81
2023/08/28 12:21:48;;;;;;;10.13;6.78;;;35.90;59.00;;;;;;4907755;29;20100;-82
2023/08/28 12:28:11;;;;;;;11.82;7.45;;;36.40;58.60;;;;;;4896668;29;20381;-82
2023/08/28 12:30:41;;;;;;;9.85;7.82;;;36.90;58.00;;;;;;4908840;29;20062;-80
2023/08/28 12:33:08;;;;;;;10.40;8.20;;;36.80;58.50;;;;;;4930871;29;20107;-81
2023/08/28 12:35:40;;;;;;;9.07;7.13;;;36.80;57.80;;;;;;4914282;29;20051;-82
2023/08/28 12:38:11;;;;;;;12.65;7.88;;;37.10;57.30;;;;;;4930790;29;20286;-83
2023/08/28 12:40:42;;;;;;;9.18;7.32;;;37.10;57.90;;;;;;4907611;29;20036;-84
2023/08/28 12:43:16;;;;;;;11.55;7.00;;;36.90;57.60;;;;;;4930969;29;20290;-83
2023/08/28 12:45:43;;;;;;;9.55;7.20;;;37.00;57.50;;;;;;4928845;29;20052;-80
2023/08/28 12:48:11;;;;;;;11.02;7.25;;;37.00;57.70;;;;;;4928475;29;20044;-80
2023/08/28 12:50:38;;;;;;;11.02;6.70;;;37.30;57.50;;;;;;4928629;29;20044;-82
2023/08/28 12:53:05;;;;;;;10.90;7.28;;;37.50;57.60;;;;;;4902236;29;20404;-82